Time;durP1;ratioP1;P1;durP2;ratioP2;P2;SDS_P1;SDS_P2;PMS_P1;PMS_P2;Temp;Humidity;BMP_temperature;BMP_pressure;BME280_temperature;BME280_humidity;BME280_pressure;Samples;Min_cycle;Max_cycle;Signal;HPM_P1;HPM_P2
2023/07/20 00:02:19;;;;;;;1.90;0.98;;;;;;;19.19;100.00;97715.84;18431013;32;20050;-57
2023/07/20 00:12:22;;;;;;;2.20;1.20;;;;;;;19.07;100.00;97719.25;18442757;32;20050;-57
2023/07/20 00:22:25;;;;;;;2.63;1.07;;;;;;;18.95;100.00;97723.47;18429166;32;20050;-57
2023/07/20 00:32:28;;;;;;;2.87;1.05;;;;;;;18.97;100.00;97723.13;18421929;32;20104;-57
2023/07/20 00:42:31;;;;;;;1.10;0.63;;;;;;;18.92;100.00;97713.13;18441412;32;20102;-57
2023/07/20 00:52:39;;;;;;;1.73;1.08;;;;;;;18.74;100.00;97717.78;18440991;32;20064;-57
2023/07/20 01:02:41;;;;;;;1.75;0.90;;;;;;;18.52;100.00;97713.28;18440821;32;20357;-57
2023/07/20 01:12:51;;;;;;;2.90;1.03;;;;;;;18.27;100.00;97704.72;18440019;32;20049;-57
2023/07/20 01:23:06;;;;;;;1.45;1.00;;;;;;;18.13;100.00;97701.31;18433543;32;20125;-57
2023/07/20 01:33:12;;;;;;;1.52;0.77;;;;;;;17.97;100.00;97700.94;18433932;32;20425;-58
2023/07/20 01:43:14;;;;;;;1.25;0.75;;;;;;;17.90;100.00;97703.31;18438124;32;20112;-57
2023/07/20 01:53:17;;;;;;;1.20;0.80;;;;;;;17.88;100.00;97706.37;18437371;32;20064;-57
2023/07/20 02:03:21;;;;;;;3.60;0.80;;;;;;;17.84;100.00;97702.66;18423016;32;20076;-57
2023/07/20 02:13:24;;;;;;;1.37;0.77;;;;;;;17.77;100.00;97696.81;18436236;32;20049;-57
2023/07/20 02:23:27;;;;;;;1.70;0.90;;;;;;;17.67;100.00;97691.66;18435622;32;20076;-57
2023/07/20 02:33:30;;;;;;;1.77;0.93;;;;;;;17.53;100.00;97686.31;18434312;32;20056;-57
2023/07/20 02:43:33;;;;;;;0.90;0.77;;;;;;;17.37;100.00;97683.97;18434130;32;20407;-57
2023/07/20 02:53:36;;;;;;;2.15;0.73;;;;;;;17.20;100.00;97687.41;18433658;32;20080;-57
2023/07/20 03:03:39;;;;;;;2.03;0.83;;;;;;;17.00;100.00;97693.41;18433344;32;20053;-57
2023/07/20 03:13:42;;;;;;;1.25;0.70;;;;;;;16.84;100.00;97696.50;18426150;32;20449;-57
2023/07/20 03:23:45;;;;;;;1.92;1.08;;;;;;;16.73;100.00;97689.66;18432362;32;20053;-57
2023/07/20 03:33:48;;;;;;;1.47;1.03;;;;;;;16.73;100.00;97686.91;18431880;32;20063;-57
2023/07/20 03:43:51;;;;;;;1.63;1.00;;;;;;;16.67;100.00;97688.16;18431098;32;20440;-57
2023/07/20 03:53:54;;;;;;;1.83;0.90;;;;;;;16.57;100.00;97698.19;18417373;32;20077;-57
2023/07/20 04:03:57;;;;;;;0.93;0.77;;;;;;;16.45;100.00;97700.66;18430773;32;20073;-57
2023/07/20 04:14:00;;;;;;;1.48;0.95;;;;;;;16.38;100.00;97703.03;18430346;32;20422;-57
2023/07/20 04:24:04;;;;;;;2.57;0.80;;;;;;;16.30;100.00;97711.94;18430367;32;20533;-57
2023/07/20 04:34:07;;;;;;;2.12;0.90;;;;;;;16.24;100.00;97703.84;18429632;32;20095;-57
2023/07/20 04:44:10;;;;;;;3.70;0.82;;;;;;;16.25;100.00;97702.75;18429482;32;20057;-57
2023/07/20 04:54:13;;;;;;;1.47;1.07;;;;;;;16.33;100.00;97705.84;18420124;32;20464;-57
2023/07/20 05:04:16;;;;;;;2.30;0.90;;;;;;;16.42;100.00;97704.03;18433889;32;20049;-58
2023/07/20 05:14:20;;;;;;;1.83;1.00;;;;;;;16.57;100.00;97706.37;18439829;32;20041;-57
2023/07/20 05:24:24;;;;;;;3.40;1.03;;;;;;;16.81;100.00;97709.94;18439465;32;20139;-57
2023/07/20 05:34:27;;;;;;;1.80;0.80;;;;;;;17.07;100.00;97708.22;18438758;32;20049;-57
2023/07/20 05:44:29;;;;;;;1.63;0.83;;;;;;;17.35;100.00;97712.72;18438536;32;20072;-57
2023/07/20 05:54:32;;;;;;;1.55;0.90;;;;;;;17.64;100.00;97708.66;18437646;32;20052;-58
2023/07/20 06:04:35;;;;;;;2.00;0.87;;;;;;;17.97;100.00;97705.63;18437142;32;20069;-58
2023/07/20 06:14:38;;;;;;;1.97;1.03;;;;;;;18.35;100.00;97705.03;18436133;32;20053;-58
2023/07/20 06:24:41;;;;;;;0.97;0.80;;;;;;;18.74;100.00;97706.03;18421625;32;20049;-58
2023/07/20 06:34:44;;;;;;;1.60;0.90;;;;;;;19.20;100.00;97701.00;18434822;32;20054;-58
2023/07/20 06:44:47;;;;;;;3.30;1.10;;;;;;;19.67;100.00;97709.25;18434096;32;20064;-58
2023/07/20 06:54:51;;;;;;;2.03;1.13;;;;;;;20.11;100.00;97720.03;18427856;32;20144;-58
2023/07/20 07:04:54;;;;;;;2.28;1.35;;;;;;;20.33;100.00;97729.13;18419572;32;20111;-58
2023/07/20 07:15:02;;;;;;;1.95;1.00;;;;;;;20.25;100.00;97728.03;18432393;32;20054;-58
2023/07/20 07:25:05;;;;;;;2.97;1.90;;;;;;;20.28;100.00;97717.19;18432396;32;20057;-58
2023/07/20 07:35:08;;;;;;;1.83;1.58;;;;;;;20.74;100.00;97727.56;18418047;32;20414;-58
2023/07/20 07:45:13;;;;;;;1.98;1.70;;;;;;;21.17;100.00;97723.59;18416319;32;20053;-58
2023/07/20 07:55:17;;;;;;;3.40;1.98;;;;;;;21.60;99.58;97718.84;18426099;32;20095;-58
2023/07/20 08:05:21;;;;;;;4.18;1.90;;;;;;;21.18;100.00;97716.97;18430927;32;20358;-58
2023/07/20 08:15:24;;;;;;;2.00;1.50;;;;;;;21.01;100.00;97717.94;18416277;32;20061;-58
2023/07/20 08:25:27;;;;;;;2.92;1.80;;;;;;;21.61;100.00;97718.47;18430598;32;20050;-58
2023/07/20 08:35:31;;;;;;;3.42;1.83;;;;;;;21.56;100.00;97715.16;18442306;32;20072;-58
2023/07/20 08:45:34;;;;;;;3.05;2.00;;;;;;;22.24;93.74;97706.34;18427425;32;20498;-58
2023/07/20 08:55:39;;;;;;;3.00;1.60;;;;;;;22.78;81.39;97720.94;18426917;32;20061;-58
2023/07/20 09:05:44;;;;;;;3.08;1.92;;;;;;;23.12;79.45;97708.53;18440836;32;20383;-58
2023/07/20 09:15:52;;;;;;;4.72;1.85;;;;;;;23.64;75.22;97709.50;18440224;32;20413;-58
2023/07/20 09:25:57;;;;;;;5.80;2.17;;;;;;;24.30;73.87;97698.06;18439631;32;20072;-58
2023/07/20 09:36:04;;;;;;;2.05;1.37;;;;;;;24.12;60.67;97689.34;18424761;32;20041;-58
2023/07/20 09:46:45;;;;;;;2.35;1.70;;;;;;;24.14;71.20;97682.31;18438333;32;20061;-58
2023/07/20 09:56:52;;;;;;;2.55;1.58;;;;;;;24.44;61.14;97665.19;18438110;32;20335;-58
2023/07/20 10:06:59;;;;;;;2.30;1.67;;;;;;;24.63;59.36;97664.44;18436972;32;20076;-58
2023/07/20 10:17:05;;;;;;;3.12;1.80;;;;;;;24.23;67.75;97662.78;18422151;32;20079;-58
2023/07/20 10:27:08;;;;;;;2.80;1.62;;;;;;;24.56;62.51;97639.38;18421591;32;20095;-58
2023/07/20 10:37:48;;;;;;;3.05;1.58;;;;;;;25.15;66.39;97622.75;18420939;32;20056;-58
2023/07/20 10:47:56;;;;;;;4.50;2.00;;;;;;;25.53;58.24;97629.34;18433502;32;20053;-58
2023/07/20 10:58:14;;;;;;;2.58;1.80;;;;;;;25.49;55.98;97615.47;18406983;32;20154;-58
2023/07/20 11:08:38;;;;;;;2.12;1.58;;;;;;;25.71;62.31;97611.06;18433177;32;20371;-58
2023/07/20 11:18:46;;;;;;;3.58;1.73;;;;;;;26.51;60.70;97593.53;18418939;32;20050;-58
2023/07/20 11:28:52;;;;;;;5.75;1.60;;;;;;;26.40;57.75;97589.84;18411469;32;20385;-58
2023/07/20 11:38:58;;;;;;;1.98;1.45;;;;;;;26.98;62.16;97577.44;18431485;32;20128;-58
2023/07/20 11:49:03;;;;;;;3.00;1.33;;;;;;;26.34;52.56;97575.53;18431408;32;20446;-58
2023/07/20 11:59:06;;;;;;;2.55;1.75;;;;;;;25.48;56.21;97566.00;18430904;32;20117;-58
2023/07/20 12:09:15;;;;;;;2.40;1.55;;;;;;;25.19;57.92;97555.25;18430075;32;20331;-58
2023/07/20 12:19:19;;;;;;;1.80;1.40;;;;;;;25.42;62.52;97543.38;18444027;32;20044;-58
2023/07/20 12:29:26;;;;;;;2.22;1.48;;;;;;;26.97;59.83;97534.25;18442782;32;20343;-58
2023/07/20 12:39:29;;;;;;;2.50;1.85;;;;;;;27.93;51.74;97529.78;18442120;32;20353;-58
2023/07/20 12:49:32;;;;;;;2.17;1.40;;;;;;;28.34;53.54;97529.59;18441638;32;20052;-58
2023/07/20 12:59:34;;;;;;;2.70;1.50;;;;;;;28.61;47.79;97504.22;18441140;32;20176;-58
2023/07/20 13:09:37;;;;;;;2.75;1.60;;;;;;;28.93;51.59;97500.72;18426181;32;20054;-58
2023/07/20 13:19:44;;;;;;;2.20;1.33;;;;;;;29.39;49.59;97494.34;18432435;32;20061;-59
2023/07/20 13:29:47;;;;;;;2.60;1.60;;;;;;;29.75;45.96;97483.13;18425233;32;20071;-58
2023/07/20 13:39:50;;;;;;;2.08;1.58;;;;;;;29.30;44.32;97480.06;18424384;32;20037;-58
2023/07/20 13:49:54;;;;;;;4.05;1.55;;;;;;;29.76;44.55;97472.78;18424339;32;20357;-58
2023/07/20 14:00:10;;;;;;;3.55;1.33;;;;;;;30.21;46.61;97469.44;18424699;32;20054;-58
2023/07/20 14:10:25;;;;;;;1.50;1.40;;;;;;;30.67;40.10;97467.56;18422436;32;20391;-58
2023/07/20 14:20:29;;;;;;;2.87;1.50;;;;;;;30.73;42.20;97461.16;18436103;32;20098;-59
2023/07/20 14:30:32;;;;;;;2.35;1.23;;;;;;;31.21;44.24;97456.78;18435671;32;20345;-59
2023/07/20 14:40:35;;;;;;;4.70;1.55;;;;;;;31.56;39.99;97438.09;18434687;32;20452;-59
2023/07/20 14:50:38;;;;;;;1.85;1.50;;;;;;;31.23;39.28;97420.06;18408200;32;20070;-59
2023/07/20 15:00:41;;;;;;;3.17;1.50;;;;;;;31.31;38.09;97420.81;18419780;32;20102;-59
2023/07/20 15:10:46;;;;;;;3.03;1.50;;;;;;;31.00;34.83;97404.72;18400259;32;20034;-58
2023/07/20 15:20:53;;;;;;;3.78;1.37;;;;;;;29.43;41.45;97410.78;18432787;32;20491;-58
2023/07/20 15:31:04;;;;;;;1.90;1.10;;;;;;;28.91;39.31;97398.12;18432048;32;20094;-58
2023/07/20 15:41:07;;;;;;;2.25;1.30;;;;;;;28.62;42.00;97383.41;18431056;32;20049;-58
2023/07/20 15:51:10;;;;;;;1.62;1.20;;;;;;;27.94;40.82;97374.97;18417335;32;20074;-58
2023/07/20 16:01:13;;;;;;;5.28;1.20;;;;;;;27.49;43.69;97364.09;18429970;32;20084;-58
2023/07/20 16:11:16;;;;;;;2.10;1.20;;;;;;;26.98;43.68;97360.22;18412018;32;20094;-58
2023/07/20 16:21:21;;;;;;;1.60;1.02;;;;;;;26.89;43.53;97355.03;18430236;32;20350;-58
2023/07/20 16:31:24;;;;;;;2.80;1.40;;;;;;;26.84;48.64;97361.72;18430558;32;20072;-58
2023/07/20 16:41:28;;;;;;;2.42;1.40;;;;;;;27.04;45.93;97337.28;18430030;32;20054;-58
2023/07/20 16:51:34;;;;;;;1.62;1.20;;;;;;;27.08;49.24;97334.53;18436419;32;20044;-58
2023/07/20 17:01:38;;;;;;;1.40;1.10;;;;;;;27.29;48.78;97331.06;18426976;32;20057;-58
2023/07/20 17:11:41;;;;;;;2.37;1.00;;;;;;;28.38;45.73;97338.53;18440778;32;20050;-58
2023/07/20 17:21:45;;;;;;;2.12;1.40;;;;;;;27.00;50.66;97330.12;18439903;32;20053;-58
2023/07/20 17:31:47;;;;;;;1.85;1.30;;;;;;;25.95;55.49;97318.16;18425373;32;20072;-57
2023/07/20 17:41:50;;;;;;;1.85;1.20;;;;;;;25.32;57.61;97309.53;18438332;32;20049;-57
2023/07/20 17:51:53;;;;;;;3.67;1.10;;;;;;;24.85;60.77;97302.63;18417650;32;20425;-57
2023/07/20 18:01:56;;;;;;;1.40;1.12;;;;;;;24.39;63.27;97299.94;18422944;32;20084;-58
2023/07/20 18:12:00;;;;;;;1.70;1.23;;;;;;;24.00;65.89;97304.44;18436916;32;20079;-57
2023/07/20 18:22:03;;;;;;;1.95;1.20;;;;;;;23.82;67.48;97304.09;18436302;32;20121;-57
2023/07/20 18:32:07;;;;;;;1.80;0.98;;;;;;;23.16;76.40;97308.72;18435551;32;20432;-58
2023/07/20 18:42:10;;;;;;;2.40;1.40;;;;;;;22.51;88.50;97312.78;18434591;32;20463;-58
2023/07/20 18:52:14;;;;;;;1.92;1.33;;;;;;;22.00;89.92;97314.25;18434133;32;20075;-57
2023/07/20 19:02:17;;;;;;;1.95;1.12;;;;;;;21.56;96.30;97316.25;18433766;32;20069;-58
2023/07/20 19:12:20;;;;;;;2.10;1.10;;;;;;;21.21;100.00;97323.09;18418227;32;20046;-57
2023/07/20 19:22:23;;;;;;;1.62;1.08;;;;;;;20.86;100.00;97312.66;18432653;32;20098;-57
2023/07/20 19:32:25;;;;;;;;;;;;;;;20.46;100.00;97316.91;18432331;32;20083;-58
2023/07/20 19:42:28;;;;;;;1.60;1.00;;;;;;;20.07;100.00;97321.91;18431552;32;20022;-57
2023/07/20 19:52:32;;;;;;;2.60;1.30;;;;;;;19.77;100.00;97324.00;18431533;32;20054;-57
2023/07/20 20:02:35;;;;;;;2.62;1.20;;;;;;;19.43;100.00;97336.91;18430890;32;20157;-57
2023/07/20 20:12:40;;;;;;;4.03;1.25;;;;;;;19.17;100.00;97348.91;18431171;32;20050;-57
2023/07/20 20:22:43;;;;;;;2.17;1.23;;;;;;;18.91;100.00;97360.88;18420187;32;20059;-57
2023/07/20 20:32:46;;;;;;;2.40;1.20;;;;;;;18.69;100.00;97358.38;18443193;32;20057;-57
2023/07/20 20:42:52;;;;;;;2.77;1.40;;;;;;;18.50;100.00;97353.31;18427925;32;20086;-57
2023/07/20 20:52:54;;;;;;;1.92;1.60;;;;;;;18.33;100.00;97356.94;18428004;32;20064;-57
2023/07/20 21:02:58;;;;;;;1.83;1.47;;;;;;;18.18;100.00;97356.34;18441144;32;20137;-57
2023/07/20 21:13:03;;;;;;;1.50;1.05;;;;;;;18.01;100.00;97348.22;18440252;32;20046;-57
2023/07/20 21:23:06;;;;;;;2.22;1.48;;;;;;;17.87;100.00;97351.94;18439991;32;20124;-57
2023/07/20 21:33:12;;;;;;;2.33;1.07;;;;;;;17.74;100.00;97342.78;18431942;32;20076;-57
2023/07/20 21:43:15;;;;;;;1.65;1.15;;;;;;;17.67;100.00;97349.88;18438398;32;20046;-57
2023/07/20 21:53:19;;;;;;;2.53;1.50;;;;;;;17.56;100.00;97346.69;18423578;32;20102;-57
2023/07/20 22:03:22;;;;;;;1.80;1.00;;;;;;;17.43;100.00;97342.97;18423153;32;20053;-57
2023/07/20 22:13:26;;;;;;;2.28;1.30;;;;;;;17.33;100.00;97335.13;18437004;32;20054;-57
2023/07/20 22:23:30;;;;;;;1.40;0.98;;;;;;;17.23;100.00;97350.72;18436150;32;20049;-57
2023/07/20 22:33:33;;;;;;;2.47;1.20;;;;;;;17.16;100.00;97339.47;18435272;32;20369;-57
2023/07/20 22:43:35;;;;;;;2.60;1.40;;;;;;;17.10;100.00;97343.47;18420775;32;20056;-57
2023/07/20 22:53:39;;;;;;;1.85;1.10;;;;;;;17.09;100.00;97350.06;18434045;32;20073;-57
2023/07/20 23:03:41;;;;;;;6.87;1.23;;;;;;;17.06;100.00;97339.78;18433604;32;20045;-57
2023/07/20 23:13:44;;;;;;;3.77;1.37;;;;;;;17.02;100.00;97338.81;18432901;32;20433;-57
2023/07/20 23:23:49;;;;;;;3.03;1.42;;;;;;;16.92;100.00;97357.13;18426091;32;20071;-57
2023/07/20 23:33:52;;;;;;;2.10;1.35;;;;;;;16.74;100.00;97336.34;18432210;32;20049;-57
2023/07/20 23:43:57;;;;;;;2.03;1.33;;;;;;;16.60;100.00;97328.28;18417914;32;20365;-57
2023/07/20 23:54:00;;;;;;;2.47;1.50;;;;;;;16.46;100.00;97328.41;18417922;32;20050;-57
